sensor_id;sensor_type;location;lat;lon;timestamp;P1;durP1;ratioP1;P2;durP2;ratioP2
12812;SDS011;6471;50.932;6.934;2023-07-24T00:00:58;1.50;;;1.40;;
12812;SDS011;6471;50.932;6.934;2023-07-24T00:03:24;1.93;;;1.50;;
12812;SDS011;6471;50.932;6.934;2023-07-24T00:05:50;1.50;;;1.40;;
12812;SDS011;6471;50.932;6.934;2023-07-24T00:08:16;2.10;;;1.67;;
12812;SDS011;6471;50.932;6.934;2023-07-24T00:10:42;1.53;;;1.43;;
12812;SDS011;6471;50.932;6.934;2023-07-24T00:13:08;1.83;;;1.63;;
12812;SDS011;6471;50.932;6.934;2023-07-24T00:15:34;2.00;;;1.80;;
12812;SDS011;6471;50.932;6.934;2023-07-24T00:18:00;1.93;;;1.70;;
12812;SDS011;6471;50.932;6.934;2023-07-24T00:20:27;1.93;;;1.70;;
12812;SDS011;6471;50.932;6.934;2023-07-24T00:22:53;2.17;;;1.80;;
12812;SDS011;6471;50.932;6.934;2023-07-24T00:25:19;2.23;;;1.97;;
12812;SDS011;6471;50.932;6.934;2023-07-24T00:27:45;2.20;;;2.00;;
12812;SDS011;6471;50.932;6.934;2023-07-24T00:30:11;1.90;;;1.80;;
12812;SDS011;6471;50.932;6.934;2023-07-24T00:32:37;2.10;;;1.77;;
12812;SDS011;6471;50.932;6.934;2023-07-24T00:35:03;2.03;;;1.83;;
12812;SDS011;6471;50.932;6.934;2023-07-24T00:37:29;2.00;;;1.80;;
12812;SDS011;6471;50.932;6.934;2023-07-24T00:39:55;2.20;;;1.90;;
12812;SDS011;6471;50.932;6.934;2023-07-24T00:42:21;2.03;;;1.80;;
12812;SDS011;6471;50.932;6.934;2023-07-24T00:44:47;2.67;;;2.00;;
12812;SDS011;6471;50.932;6.934;2023-07-24T00:47:13;2.77;;;2.10;;
12812;SDS011;6471;50.932;6.934;2023-07-24T00:49:40;2.10;;;1.80;;
12812;SDS011;6471;50.932;6.934;2023-07-24T00:52:06;2.30;;;1.97;;
12812;SDS011;6471;50.932;6.934;2023-07-24T00:54:32;2.87;;;2.10;;
12812;SDS011;6471;50.932;6.934;2023-07-24T00:56:59;2.20;;;2.00;;
12812;SDS011;6471;50.932;6.934;2023-07-24T00:59:25;2.70;;;2.03;;
12812;SDS011;6471;50.932;6.934;2023-07-24T01:01:51;1.80;;;1.60;;
12812;SDS011;6471;50.932;6.934;2023-07-24T01:04:17;1.90;;;1.70;;
12812;SDS011;6471;50.932;6.934;2023-07-24T01:06:44;2.30;;;1.97;;
12812;SDS011;6471;50.932;6.934;2023-07-24T01:09:10;2.10;;;1.90;;
12812;SDS011;6471;50.932;6.934;2023-07-24T01:11:37;2.37;;;2.03;;
12812;SDS011;6471;50.932;6.934;2023-07-24T01:14:09;2.27;;;1.97;;
12812;SDS011;6471;50.932;6.934;2023-07-24T01:16:37;2.30;;;2.10;;
12812;SDS011;6471;50.932;6.934;2023-07-24T01:19:04;2.00;;;1.80;;
12812;SDS011;6471;50.932;6.934;2023-07-24T01:21:38;2.60;;;2.10;;
12812;SDS011;6471;50.932;6.934;2023-07-24T01:26:52;2.63;;;2.10;;
12812;SDS011;6471;50.932;6.934;2023-07-24T01:29:18;3.40;;;2.23;;
12812;SDS011;6471;50.932;6.934;2023-07-24T01:31:44;2.40;;;2.07;;
12812;SDS011;6471;50.932;6.934;2023-07-24T01:34:10;2.60;;;2.40;;
12812;SDS011;6471;50.932;6.934;2023-07-24T01:36:36;2.47;;;2.27;;
12812;SDS011;6471;50.932;6.934;2023-07-24T01:39:02;2.43;;;2.20;;
12812;SDS011;6471;50.932;6.934;2023-07-24T01:41:28;2.40;;;2.20;;
12812;SDS011;6471;50.932;6.934;2023-07-24T01:43:54;2.20;;;1.90;;
12812;SDS011;6471;50.932;6.934;2023-07-24T01:46:20;2.10;;;1.87;;
12812;SDS011;6471;50.932;6.934;2023-07-24T01:48:46;2.57;;;2.03;;
12812;SDS011;6471;50.932;6.934;2023-07-24T01:51:13;2.53;;;2.20;;
12812;SDS011;6471;50.932;6.934;2023-07-24T01:53:39;3.03;;;2.13;;
12812;SDS011;6471;50.932;6.934;2023-07-24T01:56:05;2.87;;;2.27;;
12812;SDS011;6471;50.932;6.934;2023-07-24T01:58:31;2.20;;;1.97;;
12812;SDS011;6471;50.932;6.934;2023-07-24T02:00:57;2.53;;;2.27;;
12812;SDS011;6471;50.932;6.934;2023-07-24T02:03:23;2.20;;;1.90;;
12812;SDS011;6471;50.932;6.934;2023-07-24T02:05:49;2.27;;;2.03;;
12812;SDS011;6471;50.932;6.934;2023-07-24T02:08:16;2.23;;;2.03;;
12812;SDS011;6471;50.932;6.934;2023-07-24T02:10:42;3.70;;;2.50;;
12812;SDS011;6471;50.932;6.934;2023-07-24T02:13:08;3.40;;;2.47;;
12812;SDS011;6471;50.932;6.934;2023-07-24T02:15:34;4.93;;;2.83;;
12812;SDS011;6471;50.932;6.934;2023-07-24T02:18:00;3.03;;;2.63;;
12812;SDS011;6471;50.932;6.934;2023-07-24T02:20:27;2.50;;;2.30;;
12812;SDS011;6471;50.932;6.934;2023-07-24T02:22:53;2.63;;;2.40;;
12812;SDS011;6471;50.932;6.934;2023-07-24T02:25:19;2.90;;;2.30;;
12812;SDS011;6471;50.932;6.934;2023-07-24T02:27:45;2.93;;;2.47;;
12812;SDS011;6471;50.932;6.934;2023-07-24T02:30:11;3.30;;;2.70;;
12812;SDS011;6471;50.932;6.934;2023-07-24T02:32:37;3.27;;;2.73;;
12812;SDS011;6471;50.932;6.934;2023-07-24T02:35:03;3.43;;;2.60;;
12812;SDS011;6471;50.932;6.934;2023-07-24T02:37:29;3.77;;;2.80;;
12812;SDS011;6471;50.932;6.934;2023-07-24T02:39:55;3.07;;;2.50;;
12812;SDS011;6471;50.932;6.934;2023-07-24T02:42:21;2.90;;;2.53;;
12812;SDS011;6471;50.932;6.934;2023-07-24T02:44:47;3.20;;;2.40;;
12812;SDS011;6471;50.932;6.934;2023-07-24T02:47:13;2.90;;;2.50;;
12812;SDS011;6471;50.932;6.934;2023-07-24T02:49:39;3.13;;;2.73;;
12812;SDS011;6471;50.932;6.934;2023-07-24T02:52:05;2.97;;;2.67;;
12812;SDS011;6471;50.932;6.934;2023-07-24T02:54:32;2.87;;;2.50;;
12812;SDS011;6471;50.932;6.934;2023-07-24T02:56:58;3.10;;;2.50;;
12812;SDS011;6471;50.932;6.934;2023-07-24T02:59:24;2.93;;;2.40;;
12812;SDS011;6471;50.932;6.934;2023-07-24T03:01:50;3.00;;;2.23;;
12812;SDS011;6471;50.932;6.934;2023-07-24T03:04:16;2.97;;;2.47;;
12812;SDS011;6471;50.932;6.934;2023-07-24T03:06:42;2.80;;;2.03;;
12812;SDS011;6471;50.932;6.934;2023-07-24T03:09:08;2.50;;;2.30;;
12812;SDS011;6471;50.932;6.934;2023-07-24T03:11:34;2.93;;;2.50;;
12812;SDS011;6471;50.932;6.934;2023-07-24T03:14:00;3.27;;;2.47;;
12812;SDS011;6471;50.932;6.934;2023-07-24T03:16:26;2.70;;;2.23;;
12812;SDS011;6471;50.932;6.934;2023-07-24T03:18:52;3.10;;;2.40;;
12812;SDS011;6471;50.932;6.934;2023-07-24T03:21:18;2.63;;;2.30;;
12812;SDS011;6471;50.932;6.934;2023-07-24T03:23:44;3.67;;;2.23;;
12812;SDS011;6471;50.932;6.934;2023-07-24T03:26:10;2.73;;;2.30;;
12812;SDS011;6471;50.932;6.934;2023-07-24T03:28:37;2.73;;;2.30;;
12812;SDS011;6471;50.932;6.934;2023-07-24T03:31:03;2.20;;;2.00;;
12812;SDS011;6471;50.932;6.934;2023-07-24T03:33:29;2.20;;;2.00;;
12812;SDS011;6471;50.932;6.934;2023-07-24T03:35:55;3.10;;;1.93;;
12812;SDS011;6471;50.932;6.934;2023-07-24T03:38:21;2.37;;;2.10;;
12812;SDS011;6471;50.932;6.934;2023-07-24T03:40:47;2.30;;;2.03;;
12812;SDS011;6471;50.932;6.934;2023-07-24T03:43:13;3.30;;;2.40;;
12812;SDS011;6471;50.932;6.934;2023-07-24T03:45:39;2.90;;;2.30;;
12812;SDS011;6471;50.932;6.934;2023-07-24T03:48:05;2.17;;;1.90;;
12812;SDS011;6471;50.932;6.934;2023-07-24T03:50:31;2.40;;;1.93;;
12812;SDS011;6471;50.932;6.934;2023-07-24T03:52:57;2.37;;;2.10;;
12812;SDS011;6471;50.932;6.934;2023-07-24T03:55:23;3.43;;;2.63;;
12812;SDS011;6471;50.932;6.934;2023-07-24T03:57:49;2.33;;;2.13;;
12812;SDS011;6471;50.932;6.934;2023-07-24T04:00:15;2.53;;;2.17;;
12812;SDS011;6471;50.932;6.934;2023-07-24T04:02:43;3.33;;;2.60;;
12812;SDS011;6471;50.932;6.934;2023-07-24T04:05:09;2.47;;;2.27;;
12812;SDS011;6471;50.932;6.934;2023-07-24T04:07:35;2.70;;;2.20;;
12812;SDS011;6471;50.932;6.934;2023-07-24T04:10:02;3.10;;;2.67;;
12812;SDS011;6471;50.932;6.934;2023-07-24T04:12:28;2.67;;;2.40;;
12812;SDS011;6471;50.932;6.934;2023-07-24T04:14:54;2.37;;;2.10;;
12812;SDS011;6471;50.932;6.934;2023-07-24T04:17:21;2.20;;;2.00;;
12812;SDS011;6471;50.932;6.934;2023-07-24T04:19:47;3.50;;;2.10;;
12812;SDS011;6471;50.932;6.934;2023-07-24T04:22:13;2.50;;;2.20;;
12812;SDS011;6471;50.932;6.934;2023-07-24T04:24:39;2.50;;;2.17;;
12812;SDS011;6471;50.932;6.934;2023-07-24T04:27:05;2.40;;;2.10;;
12812;SDS011;6471;50.932;6.934;2023-07-24T04:29:31;3.60;;;2.00;;
12812;SDS011;6471;50.932;6.934;2023-07-24T04:31:57;2.50;;;2.30;;
12812;SDS011;6471;50.932;6.934;2023-07-24T04:34:23;2.03;;;1.73;;
12812;SDS011;6471;50.932;6.934;2023-07-24T04:36:49;2.10;;;1.90;;
12812;SDS011;6471;50.932;6.934;2023-07-24T04:39:15;2.77;;;2.57;;
12812;SDS011;6471;50.932;6.934;2023-07-24T04:41:41;2.83;;;2.27;;
12812;SDS011;6471;50.932;6.934;2023-07-24T04:44:07;2.57;;;2.20;;
12812;SDS011;6471;50.932;6.934;2023-07-24T04:46:33;2.53;;;2.07;;
12812;SDS011;6471;50.932;6.934;2023-07-24T04:48:59;2.73;;;2.33;;
12812;SDS011;6471;50.932;6.934;2023-07-24T04:51:25;2.10;;;1.90;;
12812;SDS011;6471;50.932;6.934;2023-07-24T04:53:51;2.63;;;2.30;;
12812;SDS011;6471;50.932;6.934;2023-07-24T04:56:17;3.50;;;2.43;;
12812;SDS011;6471;50.932;6.934;2023-07-24T04:58:43;3.10;;;2.50;;
12812;SDS011;6471;50.932;6.934;2023-07-24T05:01:09;3.03;;;2.50;;
12812;SDS011;6471;50.932;6.934;2023-07-24T05:03:35;3.43;;;2.80;;
12812;SDS011;6471;50.932;6.934;2023-07-24T05:06:01;3.80;;;2.90;;
12812;SDS011;6471;50.932;6.934;2023-07-24T05:08:27;3.67;;;2.70;;
12812;SDS011;6471;50.932;6.934;2023-07-24T05:10:57;2.93;;;2.57;;
12812;SDS011;6471;50.932;6.934;2023-07-24T05:13:23;4.77;;;2.90;;
12812;SDS011;6471;50.932;6.934;2023-07-24T05:15:49;3.87;;;2.77;;
12812;SDS011;6471;50.932;6.934;2023-07-24T05:18:15;4.40;;;3.00;;
12812;SDS011;6471;50.932;6.934;2023-07-24T05:20:45;4.47;;;2.97;;
12812;SDS011;6471;50.932;6.934;2023-07-24T05:23:24;3.87;;;2.47;;
12812;SDS011;6471;50.932;6.934;2023-07-24T05:26:18;4.47;;;3.27;;
12812;SDS011;6471;50.932;6.934;2023-07-24T05:41:57;4.50;;;3.27;;
12812;SDS011;6471;50.932;6.934;2023-07-24T05:45:03;5.27;;;3.37;;
12812;SDS011;6471;50.932;6.934;2023-07-24T05:48:27;5.73;;;3.67;;
12812;SDS011;6471;50.932;6.934;2023-07-24T05:50:53;4.27;;;3.37;;
12812;SDS011;6471;50.932;6.934;2023-07-24T05:53:20;4.70;;;3.30;;
12812;SDS011;6471;50.932;6.934;2023-07-24T05:55:46;4.27;;;3.03;;
12812;SDS011;6471;50.932;6.934;2023-07-24T05:58:12;6.20;;;3.57;;
12812;SDS011;6471;50.932;6.934;2023-07-24T06:00:38;4.93;;;3.20;;
12812;SDS011;6471;50.932;6.934;2023-07-24T06:03:04;3.97;;;3.33;;
12812;SDS011;6471;50.932;6.934;2023-07-24T06:05:30;3.90;;;3.20;;
12812;SDS011;6471;50.932;6.934;2023-07-24T06:07:56;4.60;;;3.10;;
12812;SDS011;6471;50.932;6.934;2023-07-24T06:10:22;4.47;;;3.23;;
12812;SDS011;6471;50.932;6.934;2023-07-24T06:12:48;4.33;;;3.30;;
12812;SDS011;6471;50.932;6.934;2023-07-24T06:15:14;4.77;;;3.40;;
12812;SDS011;6471;50.932;6.934;2023-07-24T06:17:40;5.50;;;3.47;;
12812;SDS011;6471;50.932;6.934;2023-07-24T06:20:06;4.03;;;3.33;;
12812;SDS011;6471;50.932;6.934;2023-07-24T06:22:32;4.60;;;3.50;;
12812;SDS011;6471;50.932;6.934;2023-07-24T06:24:58;4.63;;;3.27;;
12812;SDS011;6471;50.932;6.934;2023-07-24T06:27:24;3.50;;;3.10;;
12812;SDS011;6471;50.932;6.934;2023-07-24T06:29:51;4.00;;;3.00;;
12812;SDS011;6471;50.932;6.934;2023-07-24T06:32:17;4.00;;;3.20;;
12812;SDS011;6471;50.932;6.934;2023-07-24T06:34:43;4.57;;;3.30;;
12812;SDS011;6471;50.932;6.934;2023-07-24T06:37:09;3.63;;;2.93;;
12812;SDS011;6471;50.932;6.934;2023-07-24T06:39:35;4.47;;;2.80;;
12812;SDS011;6471;50.932;6.934;2023-07-24T06:42:01;4.87;;;2.87;;
12812;SDS011;6471;50.932;6.934;2023-07-24T06:44:27;3.50;;;2.87;;
12812;SDS011;6471;50.932;6.934;2023-07-24T06:46:53;3.47;;;2.87;;
12812;SDS011;6471;50.932;6.934;2023-07-24T06:49:19;3.40;;;2.63;;
12812;SDS011;6471;50.932;6.934;2023-07-24T06:51:45;3.00;;;2.27;;
12812;SDS011;6471;50.932;6.934;2023-07-24T06:54:11;3.20;;;2.67;;
12812;SDS011;6471;50.932;6.934;2023-07-24T06:56:37;3.10;;;2.23;;
12812;SDS011;6471;50.932;6.934;2023-07-24T06:59:03;3.00;;;2.17;;
12812;SDS011;6471;50.932;6.934;2023-07-24T07:01:29;3.17;;;2.37;;
12812;SDS011;6471;50.932;6.934;2023-07-24T07:03:58;2.97;;;2.40;;
12812;SDS011;6471;50.932;6.934;2023-07-24T07:06:24;3.00;;;2.40;;
12812;SDS011;6471;50.932;6.934;2023-07-24T07:08:50;2.50;;;2.30;;
12812;SDS011;6471;50.932;6.934;2023-07-24T07:11:16;3.30;;;2.83;;
12812;SDS011;6471;50.932;6.934;2023-07-24T07:13:43;3.43;;;2.73;;
12812;SDS011;6471;50.932;6.934;2023-07-24T07:16:09;4.03;;;2.87;;
12812;SDS011;6471;50.932;6.934;2023-07-24T07:18:35;3.03;;;2.63;;
12812;SDS011;6471;50.932;6.934;2023-07-24T07:21:01;3.70;;;3.10;;
12812;SDS011;6471;50.932;6.934;2023-07-24T07:23:27;3.63;;;2.70;;
12812;SDS011;6471;50.932;6.934;2023-07-24T07:25:53;2.93;;;2.50;;
12812;SDS011;6471;50.932;6.934;2023-07-24T07:28:20;2.63;;;2.33;;
12812;SDS011;6471;50.932;6.934;2023-07-24T07:30:46;3.03;;;2.47;;
12812;SDS011;6471;50.932;6.934;2023-07-24T07:33:12;3.20;;;2.60;;
12812;SDS011;6471;50.932;6.934;2023-07-24T07:35:38;3.30;;;2.80;;
12812;SDS011;6471;50.932;6.934;2023-07-24T07:38:04;3.40;;;2.73;;
12812;SDS011;6471;50.932;6.934;2023-07-24T07:40:31;3.53;;;2.70;;
12812;SDS011;6471;50.932;6.934;2023-07-24T07:42:57;5.40;;;3.03;;
12812;SDS011;6471;50.932;6.934;2023-07-24T07:45:23;3.10;;;2.63;;
12812;SDS011;6471;50.932;6.934;2023-07-24T07:47:49;4.13;;;2.80;;
12812;SDS011;6471;50.932;6.934;2023-07-24T07:50:18;3.27;;;2.60;;
12812;SDS011;6471;50.932;6.934;2023-07-24T07:52:44;4.70;;;2.70;;
12812;SDS011;6471;50.932;6.934;2023-07-24T07:55:10;2.67;;;2.20;;
12812;SDS011;6471;50.932;6.934;2023-07-24T07:57:38;4.53;;;2.40;;
12812;SDS011;6471;50.932;6.934;2023-07-24T08:00:04;2.50;;;2.27;;
12812;SDS011;6471;50.932;6.934;2023-07-24T08:02:31;2.70;;;2.30;;
12812;SDS011;6471;50.932;6.934;2023-07-24T08:04:58;2.90;;;2.40;;
12812;SDS011;6471;50.932;6.934;2023-07-24T08:07:24;3.03;;;2.30;;
12812;SDS011;6471;50.932;6.934;2023-07-24T08:09:50;2.60;;;2.20;;
12812;SDS011;6471;50.932;6.934;2023-07-24T08:12:16;2.70;;;2.40;;
12812;SDS011;6471;50.932;6.934;2023-07-24T08:14:42;3.10;;;2.50;;
12812;SDS011;6471;50.932;6.934;2023-07-24T08:17:08;3.43;;;2.50;;
12812;SDS011;6471;50.932;6.934;2023-07-24T08:19:35;4.00;;;3.10;;
12812;SDS011;6471;50.932;6.934;2023-07-24T08:22:01;4.30;;;3.00;;
12812;SDS011;6471;50.932;6.934;2023-07-24T08:24:27;3.50;;;2.70;;
12812;SDS011;6471;50.932;6.934;2023-07-24T08:26:53;2.97;;;2.67;;
12812;SDS011;6471;50.932;6.934;2023-07-24T08:29:19;3.93;;;2.77;;
12812;SDS011;6471;50.932;6.934;2023-07-24T08:31:45;3.80;;;2.83;;
12812;SDS011;6471;50.932;6.934;2023-07-24T08:34:11;3.43;;;2.73;;
12812;SDS011;6471;50.932;6.934;2023-07-24T08:36:37;4.20;;;3.00;;
12812;SDS011;6471;50.932;6.934;2023-07-24T08:39:03;3.23;;;2.83;;
12812;SDS011;6471;50.932;6.934;2023-07-24T08:41:30;3.37;;;2.77;;
12812;SDS011;6471;50.932;6.934;2023-07-24T08:43:59;2.67;;;2.40;;
12812;SDS011;6471;50.932;6.934;2023-07-24T08:46:25;4.00;;;2.70;;
12812;SDS011;6471;50.932;6.934;2023-07-24T08:48:52;2.40;;;2.20;;
12812;SDS011;6471;50.932;6.934;2023-07-24T08:51:20;2.87;;;2.27;;
12812;SDS011;6471;50.932;6.934;2023-07-24T08:53:49;3.23;;;2.30;;
12812;SDS011;6471;50.932;6.934;2023-07-24T08:56:16;3.20;;;2.67;;
12812;SDS011;6471;50.932;6.934;2023-07-24T08:58:42;2.83;;;2.53;;
12812;SDS011;6471;50.932;6.934;2023-07-24T09:01:08;3.47;;;2.70;;
12812;SDS011;6471;50.932;6.934;2023-07-24T09:03:34;3.17;;;2.60;;
12812;SDS011;6471;50.932;6.934;2023-07-24T09:06:01;3.00;;;2.40;;
12812;SDS011;6471;50.932;6.934;2023-07-24T09:08:29;3.37;;;2.40;;
12812;SDS011;6471;50.932;6.934;2023-07-24T09:10:56;2.67;;;2.47;;
12812;SDS011;6471;50.932;6.934;2023-07-24T09:13:22;3.00;;;2.50;;
12812;SDS011;6471;50.932;6.934;2023-07-24T09:15:48;2.37;;;2.17;;
12812;SDS011;6471;50.932;6.934;2023-07-24T09:18:14;3.13;;;2.47;;
12812;SDS011;6471;50.932;6.934;2023-07-24T09:20:42;3.17;;;2.60;;
12812;SDS011;6471;50.932;6.934;2023-07-24T09:23:09;2.70;;;2.30;;
12812;SDS011;6471;50.932;6.934;2023-07-24T09:25:36;2.50;;;1.93;;
12812;SDS011;6471;50.932;6.934;2023-07-24T09:28:12;3.37;;;2.30;;
12812;SDS011;6471;50.932;6.934;2023-07-24T09:30:39;2.70;;;2.20;;
12812;SDS011;6471;50.932;6.934;2023-07-24T09:33:05;2.30;;;2.00;;
12812;SDS011;6471;50.932;6.934;2023-07-24T09:35:32;2.70;;;2.40;;
12812;SDS011;6471;50.932;6.934;2023-07-24T09:38:05;2.73;;;2.23;;
12812;SDS011;6471;50.932;6.934;2023-07-24T09:40:42;2.50;;;2.03;;
12812;SDS011;6471;50.932;6.934;2023-07-24T09:43:24;2.97;;;2.30;;
12812;SDS011;6471;50.932;6.934;2023-07-24T09:45:51;2.60;;;2.27;;
12812;SDS011;6471;50.932;6.934;2023-07-24T09:48:18;2.30;;;2.00;;
12812;SDS011;6471;50.932;6.934;2023-07-24T09:50:45;2.70;;;1.93;;
12812;SDS011;6471;50.932;6.934;2023-07-24T09:56:00;2.20;;;2.00;;
12812;SDS011;6471;50.932;6.934;2023-07-24T09:58:27;2.27;;;1.90;;
12812;SDS011;6471;50.932;6.934;2023-07-24T10:00:54;2.40;;;2.10;;
12812;SDS011;6471;50.932;6.934;2023-07-24T10:03:21;2.10;;;1.90;;
12812;SDS011;6471;50.932;6.934;2023-07-24T10:05:48;2.30;;;1.90;;
12812;SDS011;6471;50.932;6.934;2023-07-24T10:08:15;2.47;;;1.93;;
12812;SDS011;6471;50.932;6.934;2023-07-24T10:10:41;2.30;;;1.73;;
12812;SDS011;6471;50.932;6.934;2023-07-24T10:13:08;1.90;;;1.70;;
12812;SDS011;6471;50.932;6.934;2023-07-24T10:15:36;2.30;;;1.80;;
12812;SDS011;6471;50.932;6.934;2023-07-24T10:18:03;1.90;;;1.70;;
12812;SDS011;6471;50.932;6.934;2023-07-24T10:20:36;2.90;;;1.90;;
12812;SDS011;6471;50.932;6.934;2023-07-24T10:23:03;2.73;;;2.00;;
12812;SDS011;6471;50.932;6.934;2023-07-24T10:25:30;2.60;;;2.20;;
12812;SDS011;6471;50.932;6.934;2023-07-24T10:28:00;3.00;;;2.40;;
12812;SDS011;6471;50.932;6.934;2023-07-24T10:30:30;3.78;;;2.38;;
12812;SDS011;6471;50.932;6.934;2023-07-24T10:33:03;2.80;;;2.30;;
12812;SDS011;6471;50.932;6.934;2023-07-24T10:35:36;2.67;;;2.13;;
12812;SDS011;6471;50.932;6.934;2023-07-24T10:38:02;2.43;;;2.07;;
12812;SDS011;6471;50.932;6.934;2023-07-24T10:40:28;2.13;;;1.92;;
12812;SDS011;6471;50.932;6.934;2023-07-24T10:43:08;2.05;;;1.80;;
12812;SDS011;6471;50.932;6.934;2023-07-24T10:45:53;2.40;;;1.90;;
12812;SDS011;6471;50.932;6.934;2023-07-24T10:48:20;2.92;;;2.38;;
12812;SDS011;6471;50.932;6.934;2023-07-24T10:50:47;3.15;;;2.30;;
12812;SDS011;6471;50.932;6.934;2023-07-24T10:53:15;2.87;;;2.10;;
12812;SDS011;6471;50.932;6.934;2023-07-24T10:55:41;2.25;;;2.00;;
12812;SDS011;6471;50.932;6.934;2023-07-24T10:58:07;2.10;;;1.87;;
12812;SDS011;6471;50.932;6.934;2023-07-24T11:00:34;2.10;;;1.90;;
12812;SDS011;6471;50.932;6.934;2023-07-24T11:03:00;2.80;;;2.17;;
12812;SDS011;6471;50.932;6.934;2023-07-24T11:05:27;3.03;;;2.20;;
12812;SDS011;6471;50.932;6.934;2023-07-24T11:07:54;2.10;;;1.90;;
12812;SDS011;6471;50.932;6.934;2023-07-24T11:10:21;2.30;;;2.10;;
12812;SDS011;6471;50.932;6.934;2023-07-24T11:12:51;2.50;;;2.20;;
12812;SDS011;6471;50.932;6.934;2023-07-24T11:15:23;2.30;;;2.10;;
12812;SDS011;6471;50.932;6.934;2023-07-24T11:17:50;2.30;;;2.00;;
12812;SDS011;6471;50.932;6.934;2023-07-24T11:20:16;2.40;;;2.20;;
12812;SDS011;6471;50.932;6.934;2023-07-24T11:22:43;2.60;;;2.20;;
12812;SDS011;6471;50.932;6.934;2023-07-24T11:25:09;2.53;;;2.20;;
12812;SDS011;6471;50.932;6.934;2023-07-24T11:27:43;2.90;;;2.50;;
12812;SDS011;6471;50.932;6.934;2023-07-24T11:30:12;4.57;;;3.17;;
12812;SDS011;6471;50.932;6.934;2023-07-24T11:32:39;3.83;;;3.00;;
12812;SDS011;6471;50.932;6.934;2023-07-24T11:35:05;3.30;;;2.87;;
12812;SDS011;6471;50.932;6.934;2023-07-24T11:37:33;3.80;;;2.92;;
12812;SDS011;6471;50.932;6.934;2023-07-24T11:40:00;4.85;;;2.63;;
12812;SDS011;6471;50.932;6.934;2023-07-24T11:42:29;4.72;;;2.88;;
12812;SDS011;6471;50.932;6.934;2023-07-24T11:44:55;3.83;;;2.13;;
12812;SDS011;6471;50.932;6.934;2023-07-24T11:47:21;5.03;;;2.37;;
12812;SDS011;6471;50.932;6.934;2023-07-24T11:50:00;7.87;;;2.70;;
12812;SDS011;6471;50.932;6.934;2023-07-24T11:52:36;5.97;;;2.80;;
12812;SDS011;6471;50.932;6.934;2023-07-24T11:55:03;3.40;;;1.80;;
12812;SDS011;6471;50.932;6.934;2023-07-24T11:57:29;3.87;;;2.40;;
12812;SDS011;6471;50.932;6.934;2023-07-24T11:59:55;3.33;;;2.00;;
12812;SDS011;6471;50.932;6.934;2023-07-24T12:02:23;2.27;;;1.70;;
12812;SDS011;6471;50.932;6.934;2023-07-24T12:04:57;3.13;;;1.70;;
12812;SDS011;6471;50.932;6.934;2023-07-24T12:07:33;2.53;;;1.80;;
12812;SDS011;6471;50.932;6.934;2023-07-24T12:10:00;3.07;;;1.83;;
12812;SDS011;6471;50.932;6.934;2023-07-24T12:12:36;3.50;;;1.80;;
12812;SDS011;6471;50.932;6.934;2023-07-24T12:15:02;4.37;;;2.20;;
12812;SDS011;6471;50.932;6.934;2023-07-24T12:17:28;3.43;;;1.70;;
12812;SDS011;6471;50.932;6.934;2023-07-24T12:19:54;3.10;;;1.60;;
12812;SDS011;6471;50.932;6.934;2023-07-24T12:22:20;3.93;;;1.80;;
12812;SDS011;6471;50.932;6.934;2023-07-24T12:24:47;3.53;;;2.00;;
12812;SDS011;6471;50.932;6.934;2023-07-24T12:27:13;2.97;;;2.20;;
12812;SDS011;6471;50.932;6.934;2023-07-24T12:29:39;3.33;;;1.80;;
12812;SDS011;6471;50.932;6.934;2023-07-24T12:32:05;3.07;;;2.03;;
12812;SDS011;6471;50.932;6.934;2023-07-24T12:34:31;2.60;;;2.10;;
12812;SDS011;6471;50.932;6.934;2023-07-24T12:36:57;3.17;;;2.00;;
12812;SDS011;6471;50.932;6.934;2023-07-24T12:39:23;2.43;;;2.00;;
12812;SDS011;6471;50.932;6.934;2023-07-24T12:41:49;2.30;;;2.00;;
12812;SDS011;6471;50.932;6.934;2023-07-24T12:44:15;2.70;;;2.00;;
12812;SDS011;6471;50.932;6.934;2023-07-24T12:46:41;3.30;;;2.10;;
12812;SDS011;6471;50.932;6.934;2023-07-24T12:49:07;2.10;;;1.83;;
12812;SDS011;6471;50.932;6.934;2023-07-24T12:51:33;2.37;;;1.93;;
12812;SDS011;6471;50.932;6.934;2023-07-24T12:53:59;2.70;;;2.20;;
12812;SDS011;6471;50.932;6.934;2023-07-24T12:56:26;2.20;;;2.00;;
12812;SDS011;6471;50.932;6.934;2023-07-24T12:58:52;2.53;;;1.90;;
12812;SDS011;6471;50.932;6.934;2023-07-24T13:01:18;1.97;;;1.77;;
12812;SDS011;6471;50.932;6.934;2023-07-24T13:03:44;1.87;;;1.57;;
12812;SDS011;6471;50.932;6.934;2023-07-24T13:06:10;2.00;;;1.50;;
12812;SDS011;6471;50.932;6.934;2023-07-24T13:08:36;2.10;;;1.70;;
12812;SDS011;6471;50.932;6.934;2023-07-24T13:11:02;2.13;;;1.73;;
12812;SDS011;6471;50.932;6.934;2023-07-24T13:13:28;2.20;;;1.80;;
12812;SDS011;6471;50.932;6.934;2023-07-24T13:15:55;1.97;;;1.70;;
12812;SDS011;6471;50.932;6.934;2023-07-24T13:18:21;1.87;;;1.70;;
12812;SDS011;6471;50.932;6.934;2023-07-24T13:20:47;2.00;;;1.80;;
12812;SDS011;6471;50.932;6.934;2023-07-24T13:23:13;2.80;;;2.00;;
12812;SDS011;6471;50.932;6.934;2023-07-24T13:25:39;2.10;;;1.87;;
12812;SDS011;6471;50.932;6.934;2023-07-24T13:28:05;2.77;;;1.70;;
12812;SDS011;6471;50.932;6.934;2023-07-24T13:30:31;2.30;;;1.70;;
12812;SDS011;6471;50.932;6.934;2023-07-24T13:32:57;2.93;;;1.60;;
12812;SDS011;6471;50.932;6.934;2023-07-24T13:35:23;1.60;;;1.50;;
12812;SDS011;6471;50.932;6.934;2023-07-24T13:37:50;2.13;;;1.80;;
12812;SDS011;6471;50.932;6.934;2023-07-24T13:40:16;2.37;;;1.83;;
12812;SDS011;6471;50.932;6.934;2023-07-24T13:42:42;2.60;;;2.10;;
12812;SDS011;6471;50.932;6.934;2023-07-24T13:45:08;2.57;;;2.27;;
12812;SDS011;6471;50.932;6.934;2023-07-24T13:47:34;2.53;;;2.00;;
12812;SDS011;6471;50.932;6.934;2023-07-24T13:50:00;2.00;;;1.80;;
12812;SDS011;6471;50.932;6.934;2023-07-24T13:52:28;2.27;;;1.80;;
12812;SDS011;6471;50.932;6.934;2023-07-24T13:54:54;2.00;;;1.70;;
12812;SDS011;6471;50.932;6.934;2023-07-24T13:57:20;2.27;;;1.87;;
12812;SDS011;6471;50.932;6.934;2023-07-24T13:59:47;3.90;;;2.07;;
12812;SDS011;6471;50.932;6.934;2023-07-24T14:02:13;2.07;;;1.70;;
12812;SDS011;6471;50.932;6.934;2023-07-24T14:04:39;1.90;;;1.70;;
12812;SDS011;6471;50.932;6.934;2023-07-24T14:07:05;2.00;;;1.50;;
12812;SDS011;6471;50.932;6.934;2023-07-24T14:09:31;1.70;;;1.50;;
12812;SDS011;6471;50.932;6.934;2023-07-24T14:11:59;2.03;;;1.60;;
12812;SDS011;6471;50.932;6.934;2023-07-24T14:14:25;1.83;;;1.70;;
12812;SDS011;6471;50.932;6.934;2023-07-24T14:16:52;1.93;;;1.70;;
12812;SDS011;6471;50.932;6.934;2023-07-24T14:19:18;2.37;;;1.73;;
12812;SDS011;6471;50.932;6.934;2023-07-24T14:21:44;1.77;;;1.60;;
12812;SDS011;6471;50.932;6.934;2023-07-24T14:24:10;2.07;;;1.67;;
12812;SDS011;6471;50.932;6.934;2023-07-24T14:26:36;1.80;;;1.47;;
12812;SDS011;6471;50.932;6.934;2023-07-24T14:29:03;1.60;;;1.30;;
12812;SDS011;6471;50.932;6.934;2023-07-24T14:31:29;2.50;;;1.30;;
12812;SDS011;6471;50.932;6.934;2023-07-24T14:33:55;1.43;;;1.33;;
12812;SDS011;6471;50.932;6.934;2023-07-24T14:36:21;1.57;;;1.40;;
12812;SDS011;6471;50.932;6.934;2023-07-24T14:38:47;1.30;;;1.20;;
12812;SDS011;6471;50.932;6.934;2023-07-24T14:41:14;1.20;;;1.10;;
12812;SDS011;6471;50.932;6.934;2023-07-24T14:43:40;1.53;;;1.40;;
12812;SDS011;6471;50.932;6.934;2023-07-24T14:46:06;1.57;;;1.30;;
12812;SDS011;6471;50.932;6.934;2023-07-24T14:48:32;1.70;;;1.40;;
12812;SDS011;6471;50.932;6.934;2023-07-24T14:50:58;2.00;;;1.60;;
12812;SDS011;6471;50.932;6.934;2023-07-24T14:53:25;2.13;;;1.67;;
12812;SDS011;6471;50.932;6.934;2023-07-24T14:55:51;1.47;;;1.33;;
12812;SDS011;6471;50.932;6.934;2023-07-24T14:58:17;2.17;;;1.47;;
12812;SDS011;6471;50.932;6.934;2023-07-24T15:00:43;1.37;;;1.17;;
12812;SDS011;6471;50.932;6.934;2023-07-24T15:03:09;1.23;;;1.10;;
12812;SDS011;6471;50.932;6.934;2023-07-24T15:05:35;1.30;;;1.20;;
12812;SDS011;6471;50.932;6.934;2023-07-24T15:08:01;1.57;;;1.20;;
12812;SDS011;6471;50.932;6.934;2023-07-24T15:10:27;1.53;;;1.23;;
12812;SDS011;6471;50.932;6.934;2023-07-24T15:12:53;1.70;;;1.57;;
12812;SDS011;6471;50.932;6.934;2023-07-24T15:15:19;2.77;;;1.70;;
12812;SDS011;6471;50.932;6.934;2023-07-24T15:17:45;2.20;;;1.90;;